sensor_id;sensor_type;location;lat;lon;timestamp;temperature;humidity
15156;DHT22;7678;50.058;8.306;2023-02-15T00:01:53;1.00;99.90
15156;DHT22;7678;50.058;8.306;2023-02-15T00:04:23;1.20;99.90
15156;DHT22;7678;50.058;8.306;2023-02-15T00:07:14;1.20;99.90
15156;DHT22;7678;50.058;8.306;2023-02-15T00:09:42;1.30;99.90
15156;DHT22;7678;50.058;8.306;2023-02-15T00:12:10;1.20;99.90
15156;DHT22;7678;50.058;8.306;2023-02-15T00:14:38;1.30;99.90
15156;DHT22;7678;50.058;8.306;2023-02-15T00:17:07;1.20;99.90
15156;DHT22;7678;50.058;8.306;2023-02-15T00:19:37;1.30;99.90
15156;DHT22;7678;50.058;8.306;2023-02-15T00:22:06;1.20;99.90
15156;DHT22;7678;50.058;8.306;2023-02-15T00:24:35;1.20;99.90
15156;DHT22;7678;50.058;8.306;2023-02-15T00:27:03;1.30;99.90
15156;DHT22;7678;50.058;8.306;2023-02-15T00:29:33;1.40;99.90
15156;DHT22;7678;50.058;8.306;2023-02-15T00:32:01;1.40;99.90
15156;DHT22;7678;50.058;8.306;2023-02-15T00:34:30;1.40;99.90
15156;DHT22;7678;50.058;8.306;2023-02-15T00:36:58;1.40;99.90
15156;DHT22;7678;50.058;8.306;2023-02-15T00:39:26;1.30;99.90
15156;DHT22;7678;50.058;8.306;2023-02-15T00:41:55;1.30;99.90
15156;DHT22;7678;50.058;8.306;2023-02-15T00:44:23;1.30;99.90
15156;DHT22;7678;50.058;8.306;2023-02-15T00:46:51;1.20;99.90
15156;DHT22;7678;50.058;8.306;2023-02-15T00:49:19;1.10;99.90
15156;DHT22;7678;50.058;8.306;2023-02-15T00:51:48;1.20;99.90
15156;DHT22;7678;50.058;8.306;2023-02-15T00:54:16;1.30;99.90
15156;DHT22;7678;50.058;8.306;2023-02-15T00:56:44;1.30;99.90
15156;DHT22;7678;50.058;8.306;2023-02-15T00:59:13;1.30;99.90
15156;DHT22;7678;50.058;8.306;2023-02-15T01:01:40;1.30;99.90
15156;DHT22;7678;50.058;8.306;2023-02-15T01:04:08;1.30;99.90
15156;DHT22;7678;50.058;8.306;2023-02-15T01:06:37;1.30;99.90
15156;DHT22;7678;50.058;8.306;2023-02-15T01:09:06;1.30;99.90
15156;DHT22;7678;50.058;8.306;2023-02-15T01:11:34;1.40;99.90
15156;DHT22;7678;50.058;8.306;2023-02-15T01:14:02;1.30;99.90
15156;DHT22;7678;50.058;8.306;2023-02-15T01:16:35;1.40;99.90
15156;DHT22;7678;50.058;8.306;2023-02-15T01:19:03;1.40;99.90
15156;DHT22;7678;50.058;8.306;2023-02-15T01:21:31;1.40;99.90
15156;DHT22;7678;50.058;8.306;2023-02-15T01:24:01;1.50;99.90
15156;DHT22;7678;50.058;8.306;2023-02-15T01:26:30;1.40;99.90
15156;DHT22;7678;50.058;8.306;2023-02-15T01:28:58;1.30;99.90
15156;DHT22;7678;50.058;8.306;2023-02-15T01:31:26;1.30;99.90
15156;DHT22;7678;50.058;8.306;2023-02-15T01:33:57;1.40;99.90
15156;DHT22;7678;50.058;8.306;2023-02-15T01:36:26;1.40;99.90
15156;DHT22;7678;50.058;8.306;2023-02-15T01:38:54;1.40;99.90
15156;DHT22;7678;50.058;8.306;2023-02-15T01:41:22;1.40;99.90
15156;DHT22;7678;50.058;8.306;2023-02-15T01:43:56;1.30;99.90
15156;DHT22;7678;50.058;8.306;2023-02-15T01:46:28;1.40;99.90
15156;DHT22;7678;50.058;8.306;2023-02-15T01:49:03;1.40;99.90
15156;DHT22;7678;50.058;8.306;2023-02-15T01:51:37;1.40;99.90
15156;DHT22;7678;50.058;8.306;2023-02-15T01:54:10;1.30;99.90
15156;DHT22;7678;50.058;8.306;2023-02-15T01:56:42;1.30;99.90
15156;DHT22;7678;50.058;8.306;2023-02-15T01:59:13;1.30;99.90
15156;DHT22;7678;50.058;8.306;2023-02-15T02:01:43;1.40;99.90
15156;DHT22;7678;50.058;8.306;2023-02-15T02:04:15;1.40;99.90
15156;DHT22;7678;50.058;8.306;2023-02-15T02:06:46;1.50;99.90
15156;DHT22;7678;50.058;8.306;2023-02-15T02:09:15;1.40;99.90
15156;DHT22;7678;50.058;8.306;2023-02-15T02:11:46;1.40;99.90
15156;DHT22;7678;50.058;8.306;2023-02-15T02:14:17;1.30;99.90
15156;DHT22;7678;50.058;8.306;2023-02-15T02:16:51;1.40;99.90
15156;DHT22;7678;50.058;8.306;2023-02-15T02:19:39;1.40;99.90
15156;DHT22;7678;50.058;8.306;2023-02-15T02:23:05;1.30;99.90
15156;DHT22;7678;50.058;8.306;2023-02-15T02:29:14;1.40;99.90
15156;DHT22;7678;50.058;8.306;2023-02-15T02:32:21;1.40;99.90
15156;DHT22;7678;50.058;8.306;2023-02-15T02:34:57;1.40;99.90
15156;DHT22;7678;50.058;8.306;2023-02-15T02:37:30;1.30;99.90
15156;DHT22;7678;50.058;8.306;2023-02-15T02:40:08;1.30;99.90
15156;DHT22;7678;50.058;8.306;2023-02-15T02:42:41;1.40;99.90
15156;DHT22;7678;50.058;8.306;2023-02-15T02:45:15;1.30;99.90
15156;DHT22;7678;50.058;8.306;2023-02-15T02:47:47;1.30;99.90
15156;DHT22;7678;50.058;8.306;2023-02-15T02:50:22;1.30;99.90
15156;DHT22;7678;50.058;8.306;2023-02-15T02:52:52;1.30;99.90
15156;DHT22;7678;50.058;8.306;2023-02-15T02:55:23;1.40;99.90
15156;DHT22;7678;50.058;8.306;2023-02-15T02:57:54;1.30;99.90
15156;DHT22;7678;50.058;8.306;2023-02-15T03:00:24;1.30;99.90
15156;DHT22;7678;50.058;8.306;2023-02-15T03:02:58;1.30;99.90
15156;DHT22;7678;50.058;8.306;2023-02-15T03:05:34;1.30;99.90
15156;DHT22;7678;50.058;8.306;2023-02-15T03:08:04;1.20;99.90
15156;DHT22;7678;50.058;8.306;2023-02-15T03:10:37;1.20;99.90
15156;DHT22;7678;50.058;8.306;2023-02-15T03:13:08;1.30;99.90
15156;DHT22;7678;50.058;8.306;2023-02-15T03:15:38;1.30;99.90
15156;DHT22;7678;50.058;8.306;2023-02-15T03:18:28;1.30;99.90
15156;DHT22;7678;50.058;8.306;2023-02-15T03:21:01;1.40;99.90
15156;DHT22;7678;50.058;8.306;2023-02-15T03:23:30;1.30;99.90
15156;DHT22;7678;50.058;8.306;2023-02-15T03:26:02;1.30;99.90
15156;DHT22;7678;50.058;8.306;2023-02-15T03:28:35;1.40;99.90
15156;DHT22;7678;50.058;8.306;2023-02-15T03:31:05;1.40;99.90
15156;DHT22;7678;50.058;8.306;2023-02-15T03:33:37;1.30;99.90
15156;DHT22;7678;50.058;8.306;2023-02-15T03:36:13;1.20;99.90
15156;DHT22;7678;50.058;8.306;2023-02-15T03:38:50;1.20;99.90
15156;DHT22;7678;50.058;8.306;2023-02-15T03:41:20;1.20;99.90
15156;DHT22;7678;50.058;8.306;2023-02-15T03:43:54;1.30;99.90
15156;DHT22;7678;50.058;8.306;2023-02-15T03:46:26;1.20;99.90
15156;DHT22;7678;50.058;8.306;2023-02-15T03:48:58;1.20;99.90
15156;DHT22;7678;50.058;8.306;2023-02-15T03:51:33;1.20;99.90
15156;DHT22;7678;50.058;8.306;2023-02-15T03:54:04;1.20;99.90
15156;DHT22;7678;50.058;8.306;2023-02-15T03:56:34;1.10;99.90
15156;DHT22;7678;50.058;8.306;2023-02-15T03:59:03;1.10;99.90
15156;DHT22;7678;50.058;8.306;2023-02-15T04:02:01;1.10;99.90
15156;DHT22;7678;50.058;8.306;2023-02-15T04:04:36;1.10;99.90
15156;DHT22;7678;50.058;8.306;2023-02-15T04:07:08;1.10;99.90
15156;DHT22;7678;50.058;8.306;2023-02-15T04:09:36;1.10;99.90
15156;DHT22;7678;50.058;8.306;2023-02-15T04:12:21;1.10;99.90
15156;DHT22;7678;50.058;8.306;2023-02-15T04:14:50;1.30;99.90
15156;DHT22;7678;50.058;8.306;2023-02-15T04:17:36;1.40;99.90
15156;DHT22;7678;50.058;8.306;2023-02-15T04:20:05;1.30;99.90
15156;DHT22;7678;50.058;8.306;2023-02-15T04:22:52;1.30;99.90
15156;DHT22;7678;50.058;8.306;2023-02-15T04:25:38;1.20;99.90
15156;DHT22;7678;50.058;8.306;2023-02-15T04:28:06;1.20;99.90
15156;DHT22;7678;50.058;8.306;2023-02-15T04:30:35;1.10;99.90
15156;DHT22;7678;50.058;8.306;2023-02-15T04:33:04;1.10;99.90
15156;DHT22;7678;50.058;8.306;2023-02-15T04:35:32;1.20;99.90
15156;DHT22;7678;50.058;8.306;2023-02-15T04:38:01;1.10;99.90
15156;DHT22;7678;50.058;8.306;2023-02-15T04:40:29;1.20;99.90
15156;DHT22;7678;50.058;8.306;2023-02-15T04:42:57;1.10;99.90
15156;DHT22;7678;50.058;8.306;2023-02-15T04:45:25;1.10;99.90
15156;DHT22;7678;50.058;8.306;2023-02-15T04:47:55;1.10;99.90
15156;DHT22;7678;50.058;8.306;2023-02-15T04:50:23;1.10;99.90
15156;DHT22;7678;50.058;8.306;2023-02-15T04:52:51;1.20;99.90
15156;DHT22;7678;50.058;8.306;2023-02-15T04:55:20;1.20;99.90
15156;DHT22;7678;50.058;8.306;2023-02-15T04:57:48;1.20;99.90
15156;DHT22;7678;50.058;8.306;2023-02-15T05:00:17;1.20;99.90
15156;DHT22;7678;50.058;8.306;2023-02-15T05:02:45;1.10;99.90
15156;DHT22;7678;50.058;8.306;2023-02-15T05:05:13;1.30;99.90
15156;DHT22;7678;50.058;8.306;2023-02-15T05:07:41;1.20;99.90
15156;DHT22;7678;50.058;8.306;2023-02-15T05:10:10;1.20;99.90
15156;DHT22;7678;50.058;8.306;2023-02-15T05:12:39;1.20;99.90
15156;DHT22;7678;50.058;8.306;2023-02-15T05:15:08;1.10;99.90
15156;DHT22;7678;50.058;8.306;2023-02-15T05:17:36;1.20;99.90
15156;DHT22;7678;50.058;8.306;2023-02-15T05:20:05;1.20;99.90
15156;DHT22;7678;50.058;8.306;2023-02-15T05:22:33;1.20;99.90
15156;DHT22;7678;50.058;8.306;2023-02-15T05:25:01;1.20;99.90
15156;DHT22;7678;50.058;8.306;2023-02-15T05:27:48;1.10;99.90
15156;DHT22;7678;50.058;8.306;2023-02-15T05:30:34;1.20;99.90
15156;DHT22;7678;50.058;8.306;2023-02-15T05:33:05;1.20;99.90
15156;DHT22;7678;50.058;8.306;2023-02-15T05:35:33;1.10;99.90
15156;DHT22;7678;50.058;8.306;2023-02-15T05:38:02;1.20;99.90
15156;DHT22;7678;50.058;8.306;2023-02-15T05:40:30;1.20;99.90
15156;DHT22;7678;50.058;8.306;2023-02-15T05:42:59;1.20;99.90
15156;DHT22;7678;50.058;8.306;2023-02-15T05:45:27;1.10;99.90
15156;DHT22;7678;50.058;8.306;2023-02-15T05:47:55;1.10;99.90
15156;DHT22;7678;50.058;8.306;2023-02-15T05:50:25;0.90;99.90
15156;DHT22;7678;50.058;8.306;2023-02-15T05:52:53;1.00;99.90
15156;DHT22;7678;50.058;8.306;2023-02-15T05:55:21;1.10;99.90
15156;DHT22;7678;50.058;8.306;2023-02-15T05:57:49;1.20;99.90
15156;DHT22;7678;50.058;8.306;2023-02-15T06:00:19;1.30;99.90
15156;DHT22;7678;50.058;8.306;2023-02-15T06:02:47;1.20;99.90
15156;DHT22;7678;50.058;8.306;2023-02-15T06:05:15;1.20;99.90
15156;DHT22;7678;50.058;8.306;2023-02-15T06:07:43;1.10;99.90
15156;DHT22;7678;50.058;8.306;2023-02-15T06:10:12;1.20;99.90
15156;DHT22;7678;50.058;8.306;2023-02-15T06:12:40;1.00;99.90
15156;DHT22;7678;50.058;8.306;2023-02-15T06:15:08;1.00;99.90
15156;DHT22;7678;50.058;8.306;2023-02-15T06:17:38;1.10;99.90
15156;DHT22;7678;50.058;8.306;2023-02-15T06:20:09;1.20;99.90
15156;DHT22;7678;50.058;8.306;2023-02-15T06:22:37;1.10;99.90
15156;DHT22;7678;50.058;8.306;2023-02-15T06:25:05;1.00;99.90
15156;DHT22;7678;50.058;8.306;2023-02-15T06:27:36;1.10;99.90
15156;DHT22;7678;50.058;8.306;2023-02-15T06:30:06;1.10;99.90
15156;DHT22;7678;50.058;8.306;2023-02-15T06:32:34;1.20;99.90
15156;DHT22;7678;50.058;8.306;2023-02-15T06:35:04;1.20;99.90
15156;DHT22;7678;50.058;8.306;2023-02-15T06:37:32;1.10;99.90
15156;DHT22;7678;50.058;8.306;2023-02-15T06:40:00;1.00;99.90
15156;DHT22;7678;50.058;8.306;2023-02-15T06:42:30;1.00;99.90
15156;DHT22;7678;50.058;8.306;2023-02-15T06:44:58;0.90;99.90
15156;DHT22;7678;50.058;8.306;2023-02-15T06:47:27;1.10;99.90
15156;DHT22;7678;50.058;8.306;2023-02-15T06:49:55;1.10;99.90
15156;DHT22;7678;50.058;8.306;2023-02-15T06:52:25;1.00;99.90
15156;DHT22;7678;50.058;8.306;2023-02-15T06:54:55;1.00;99.90
15156;DHT22;7678;50.058;8.306;2023-02-15T06:57:23;1.00;99.90
15156;DHT22;7678;50.058;8.306;2023-02-15T06:59:51;0.90;99.90
15156;DHT22;7678;50.058;8.306;2023-02-15T07:02:19;0.80;99.90
15156;DHT22;7678;50.058;8.306;2023-02-15T07:04:47;0.90;99.90
15156;DHT22;7678;50.058;8.306;2023-02-15T07:07:16;0.90;99.90
15156;DHT22;7678;50.058;8.306;2023-02-15T07:09:45;0.80;99.90
15156;DHT22;7678;50.058;8.306;2023-02-15T07:12:13;0.90;99.90
15156;DHT22;7678;50.058;8.306;2023-02-15T07:14:59;0.70;99.90
15156;DHT22;7678;50.058;8.306;2023-02-15T07:17:27;0.80;99.90
15156;DHT22;7678;50.058;8.306;2023-02-15T07:20:09;0.70;99.90
15156;DHT22;7678;50.058;8.306;2023-02-15T07:22:37;0.80;99.90
15156;DHT22;7678;50.058;8.306;2023-02-15T07:25:09;0.80;99.90
15156;DHT22;7678;50.058;8.306;2023-02-15T07:27:37;0.90;99.90
15156;DHT22;7678;50.058;8.306;2023-02-15T07:30:08;0.90;99.90
15156;DHT22;7678;50.058;8.306;2023-02-15T07:32:36;0.80;99.90
15156;DHT22;7678;50.058;8.306;2023-02-15T07:35:25;0.70;99.90
15156;DHT22;7678;50.058;8.306;2023-02-15T07:37:54;0.90;99.90
15156;DHT22;7678;50.058;8.306;2023-02-15T07:40:26;0.90;99.90
15156;DHT22;7678;50.058;8.306;2023-02-15T07:42:57;0.90;99.90
15156;DHT22;7678;50.058;8.306;2023-02-15T07:45:26;1.00;99.90
15156;DHT22;7678;50.058;8.306;2023-02-15T07:47:54;1.00;99.90
15156;DHT22;7678;50.058;8.306;2023-02-15T07:50:22;0.90;99.90
15156;DHT22;7678;50.058;8.306;2023-02-15T07:52:50;0.90;99.90
15156;DHT22;7678;50.058;8.306;2023-02-15T07:55:19;1.10;99.90
15156;DHT22;7678;50.058;8.306;2023-02-15T07:57:50;1.20;99.90
15156;DHT22;7678;50.058;8.306;2023-02-15T08:00:19;1.20;99.90
15156;DHT22;7678;50.058;8.306;2023-02-15T08:02:53;1.20;99.90
15156;DHT22;7678;50.058;8.306;2023-02-15T08:05:36;1.30;99.90
15156;DHT22;7678;50.058;8.306;2023-02-15T08:08:04;1.20;99.90
15156;DHT22;7678;50.058;8.306;2023-02-15T08:10:32;1.30;99.90
15156;DHT22;7678;50.058;8.306;2023-02-15T08:13:19;1.10;99.90
15156;DHT22;7678;50.058;8.306;2023-02-15T08:15:50;0.90;99.90
15156;DHT22;7678;50.058;8.306;2023-02-15T08:18:19;1.00;99.90
15156;DHT22;7678;50.058;8.306;2023-02-15T08:20:49;1.10;99.90
15156;DHT22;7678;50.058;8.306;2023-02-15T08:23:17;1.10;99.90
15156;DHT22;7678;50.058;8.306;2023-02-15T08:25:46;1.20;99.90
15156;DHT22;7678;50.058;8.306;2023-02-15T08:28:13;1.30;99.90
15156;DHT22;7678;50.058;8.306;2023-02-15T08:30:43;1.20;99.90
15156;DHT22;7678;50.058;8.306;2023-02-15T08:33:11;1.30;99.90
15156;DHT22;7678;50.058;8.306;2023-02-15T08:35:39;1.20;99.90
15156;DHT22;7678;50.058;8.306;2023-02-15T08:38:07;1.20;99.90
15156;DHT22;7678;50.058;8.306;2023-02-15T08:40:35;1.40;99.90
15156;DHT22;7678;50.058;8.306;2023-02-15T08:43:04;1.40;99.90
15156;DHT22;7678;50.058;8.306;2023-02-15T08:45:33;1.50;99.90
15156;DHT22;7678;50.058;8.306;2023-02-15T08:48:03;1.30;99.90
15156;DHT22;7678;50.058;8.306;2023-02-15T08:50:31;1.30;99.90
15156;DHT22;7678;50.058;8.306;2023-02-15T08:52:59;1.30;99.90
15156;DHT22;7678;50.058;8.306;2023-02-15T08:55:27;1.40;99.90
15156;DHT22;7678;50.058;8.306;2023-02-15T08:57:55;1.50;99.90
15156;DHT22;7678;50.058;8.306;2023-02-15T09:00:24;1.30;99.90
15156;DHT22;7678;50.058;8.306;2023-02-15T09:02:52;1.10;99.90
15156;DHT22;7678;50.058;8.306;2023-02-15T09:05:23;1.20;99.90
15156;DHT22;7678;50.058;8.306;2023-02-15T09:07:51;1.20;99.90
15156;DHT22;7678;50.058;8.306;2023-02-15T09:10:19;1.30;99.90
15156;DHT22;7678;50.058;8.306;2023-02-15T09:12:47;1.30;99.90
15156;DHT22;7678;50.058;8.306;2023-02-15T09:15:16;1.30;99.90
15156;DHT22;7678;50.058;8.306;2023-02-15T09:17:44;1.30;99.90
15156;DHT22;7678;50.058;8.306;2023-02-15T09:20:12;1.20;99.90
15156;DHT22;7678;50.058;8.306;2023-02-15T09:22:42;1.40;99.90
15156;DHT22;7678;50.058;8.306;2023-02-15T09:25:10;1.40;99.90
15156;DHT22;7678;50.058;8.306;2023-02-15T09:27:40;1.50;99.90
15156;DHT22;7678;50.058;8.306;2023-02-15T09:30:09;1.40;99.90
15156;DHT22;7678;50.058;8.306;2023-02-15T09:32:38;1.40;99.90
15156;DHT22;7678;50.058;8.306;2023-02-15T09:35:06;1.40;99.90
15156;DHT22;7678;50.058;8.306;2023-02-15T09:37:34;1.40;99.90
15156;DHT22;7678;50.058;8.306;2023-02-15T09:40:05;1.50;99.90
15156;DHT22;7678;50.058;8.306;2023-02-15T09:45:36;1.40;99.90
15156;DHT22;7678;50.058;8.306;2023-02-15T09:51:25;1.60;99.90
15156;DHT22;7678;50.058;8.306;2023-02-15T09:54:06;1.80;99.90
15156;DHT22;7678;50.058;8.306;2023-02-15T09:56:43;1.70;99.90
15156;DHT22;7678;50.058;8.306;2023-02-15T09:59:21;1.60;99.90
15156;DHT22;7678;50.058;8.306;2023-02-15T10:01:59;1.70;99.90
15156;DHT22;7678;50.058;8.306;2023-02-15T10:04:42;1.70;99.90
15156;DHT22;7678;50.058;8.306;2023-02-15T10:07:23;1.80;99.90
15156;DHT22;7678;50.058;8.306;2023-02-15T10:10:02;1.90;99.90
15156;DHT22;7678;50.058;8.306;2023-02-15T10:12:49;1.90;99.90
15156;DHT22;7678;50.058;8.306;2023-02-15T10:15:41;2.00;99.90
15156;DHT22;7678;50.058;8.306;2023-02-15T10:18:23;2.00;99.90
15156;DHT22;7678;50.058;8.306;2023-02-15T10:20:57;1.70;99.90
15156;DHT22;7678;50.058;8.306;2023-02-15T10:23:47;1.60;99.90
15156;DHT22;7678;50.058;8.306;2023-02-15T10:26:19;1.80;99.90
15156;DHT22;7678;50.058;8.306;2023-02-15T10:28:51;1.80;99.90
15156;DHT22;7678;50.058;8.306;2023-02-15T10:31:24;1.70;99.90
15156;DHT22;7678;50.058;8.306;2023-02-15T10:34:14;1.80;99.90
15156;DHT22;7678;50.058;8.306;2023-02-15T10:36:58;2.10;99.90
15156;DHT22;7678;50.058;8.306;2023-02-15T10:39:35;2.20;99.90
15156;DHT22;7678;50.058;8.306;2023-02-15T10:42:11;2.20;99.90
15156;DHT22;7678;50.058;8.306;2023-02-15T10:45:00;2.10;99.90
15156;DHT22;7678;50.058;8.306;2023-02-15T10:47:50;2.10;99.90
15156;DHT22;7678;50.058;8.306;2023-02-15T10:50:33;2.20;99.90
15156;DHT22;7678;50.058;8.306;2023-02-15T10:53:35;2.30;99.90
15156;DHT22;7678;50.058;8.306;2023-02-15T10:56:15;2.20;99.90
15156;DHT22;7678;50.058;8.306;2023-02-15T11:01:54;2.40;99.90
15156;DHT22;7678;50.058;8.306;2023-02-15T11:04:43;2.30;99.90
15156;DHT22;7678;50.058;8.306;2023-02-15T11:07:17;2.20;99.90
15156;DHT22;7678;50.058;8.306;2023-02-15T11:09:49;2.10;99.90
15156;DHT22;7678;50.058;8.306;2023-02-15T11:12:22;2.20;99.90
15156;DHT22;7678;50.058;8.306;2023-02-15T11:14:57;2.10;99.90
15156;DHT22;7678;50.058;8.306;2023-02-15T11:17:33;2.00;99.90
15156;DHT22;7678;50.058;8.306;2023-02-15T11:20:14;2.00;99.90
15156;DHT22;7678;50.058;8.306;2023-02-15T11:22:47;2.20;99.90
15156;DHT22;7678;50.058;8.306;2023-02-15T11:25:18;2.40;99.90
15156;DHT22;7678;50.058;8.306;2023-02-15T11:27:48;2.40;99.90
15156;DHT22;7678;50.058;8.306;2023-02-15T11:30:22;2.10;99.90
15156;DHT22;7678;50.058;8.306;2023-02-15T11:32:53;2.50;99.90
15156;DHT22;7678;50.058;8.306;2023-02-15T11:35:27;2.60;99.90
15156;DHT22;7678;50.058;8.306;2023-02-15T11:38:03;2.30;99.90
15156;DHT22;7678;50.058;8.306;2023-02-15T11:40:35;2.20;99.90
15156;DHT22;7678;50.058;8.306;2023-02-15T11:43:10;2.40;99.90
15156;DHT22;7678;50.058;8.306;2023-02-15T11:45:42;2.50;99.90
15156;DHT22;7678;50.058;8.306;2023-02-15T11:48:14;2.50;99.90
15156;DHT22;7678;50.058;8.306;2023-02-15T11:50:43;2.70;99.90
15156;DHT22;7678;50.058;8.306;2023-02-15T11:53:14;2.60;99.90
15156;DHT22;7678;50.058;8.306;2023-02-15T11:55:44;2.60;99.90
15156;DHT22;7678;50.058;8.306;2023-02-15T11:58:21;2.60;99.90
15156;DHT22;7678;50.058;8.306;2023-02-15T12:00:54;2.60;99.90
15156;DHT22;7678;50.058;8.306;2023-02-15T12:03:39;2.60;99.90
15156;DHT22;7678;50.058;8.306;2023-02-15T12:06:16;2.60;99.90
15156;DHT22;7678;50.058;8.306;2023-02-15T12:08:51;2.80;99.90
15156;DHT22;7678;50.058;8.306;2023-02-15T12:11:25;2.70;99.90
15156;DHT22;7678;50.058;8.306;2023-02-15T12:13:57;2.60;99.90
15156;DHT22;7678;50.058;8.306;2023-02-15T12:16:28;2.80;99.90
15156;DHT22;7678;50.058;8.306;2023-02-15T12:18:59;2.70;99.90
15156;DHT22;7678;50.058;8.306;2023-02-15T12:21:30;2.90;99.90
15156;DHT22;7678;50.058;8.306;2023-02-15T12:24:09;3.10;99.90
15156;DHT22;7678;50.058;8.306;2023-02-15T12:26:41;3.10;99.90
15156;DHT22;7678;50.058;8.306;2023-02-15T12:29:15;3.10;99.90
15156;DHT22;7678;50.058;8.306;2023-02-15T12:31:46;3.00;99.90
15156;DHT22;7678;50.058;8.306;2023-02-15T12:34:22;2.80;99.90
15156;DHT22;7678;50.058;8.306;2023-02-15T12:36:52;3.00;99.90
15156;DHT22;7678;50.058;8.306;2023-02-15T12:39:26;2.70;99.90
15156;DHT22;7678;50.058;8.306;2023-02-15T12:42:04;2.90;99.90
15156;DHT22;7678;50.058;8.306;2023-02-15T12:44:34;2.80;99.90
15156;DHT22;7678;50.058;8.306;2023-02-15T12:47:05;3.00;99.90
15156;DHT22;7678;50.058;8.306;2023-02-15T12:49:36;3.00;99.90
15156;DHT22;7678;50.058;8.306;2023-02-15T12:52:06;2.90;99.90
15156;DHT22;7678;50.058;8.306;2023-02-15T12:54:50;3.00;99.90
15156;DHT22;7678;50.058;8.306;2023-02-15T12:57:25;2.90;99.90
15156;DHT22;7678;50.058;8.306;2023-02-15T12:59:55;2.90;99.90
15156;DHT22;7678;50.058;8.306;2023-02-15T13:02:30;2.90;99.90
15156;DHT22;7678;50.058;8.306;2023-02-15T13:05:14;2.90;99.90
15156;DHT22;7678;50.058;8.306;2023-02-15T13:07:46;2.80;99.90
15156;DHT22;7678;50.058;8.306;2023-02-15T13:10:22;2.90;99.90
15156;DHT22;7678;50.058;8.306;2023-02-15T13:12:53;2.80;99.90
15156;DHT22;7678;50.058;8.306;2023-02-15T13:15:28;2.90;99.90
15156;DHT22;7678;50.058;8.306;2023-02-15T13:17:58;2.90;99.90
15156;DHT22;7678;50.058;8.306;2023-02-15T13:20:28;2.80;99.90
15156;DHT22;7678;50.058;8.306;2023-02-15T13:22:59;2.70;99.90
15156;DHT22;7678;50.058;8.306;2023-02-15T13:25:35;2.60;99.90
15156;DHT22;7678;50.058;8.306;2023-02-15T13:28:11;2.60;99.90
15156;DHT22;7678;50.058;8.306;2023-02-15T13:30:44;2.80;99.90
15156;DHT22;7678;50.058;8.306;2023-02-15T13:33:17;2.90;99.90
15156;DHT22;7678;50.058;8.306;2023-02-15T13:36:04;2.90;99.90
15156;DHT22;7678;50.058;8.306;2023-02-15T13:38:49;3.00;99.90
15156;DHT22;7678;50.058;8.306;2023-02-15T13:41:24;3.10;99.90
15156;DHT22;7678;50.058;8.306;2023-02-15T13:44:03;2.90;99.90
15156;DHT22;7678;50.058;8.306;2023-02-15T13:46:44;2.70;99.90
15156;DHT22;7678;50.058;8.306;2023-02-15T13:49:18;2.80;99.90
15156;DHT22;7678;50.058;8.306;2023-02-15T13:52:02;2.60;99.90
15156;DHT22;7678;50.058;8.306;2023-02-15T13:55:03;2.60;99.90
15156;DHT22;7678;50.058;8.306;2023-02-15T13:57:46;2.80;99.90
15156;DHT22;7678;50.058;8.306;2023-02-15T14:00:22;2.70;99.90
15156;DHT22;7678;50.058;8.306;2023-02-15T14:03:20;2.60;99.90
15156;DHT22;7678;50.058;8.306;2023-02-15T14:06:15;2.80;99.90
15156;DHT22;7678;50.058;8.306;2023-02-15T14:09:01;2.90;99.90
15156;DHT22;7678;50.058;8.306;2023-02-15T14:11:38;2.90;99.90
15156;DHT22;7678;50.058;8.306;2023-02-15T14:14:31;2.80;99.90
15156;DHT22;7678;50.058;8.306;2023-02-15T14:17:13;3.00;99.90
15156;DHT22;7678;50.058;8.306;2023-02-15T14:19:45;3.00;99.90
15156;DHT22;7678;50.058;8.306;2023-02-15T14:22:25;3.00;99.90
15156;DHT22;7678;50.058;8.306;2023-02-15T14:25:17;3.00;99.90
15156;DHT22;7678;50.058;8.306;2023-02-15T14:27:54;3.20;99.90
15156;DHT22;7678;50.058;8.306;2023-02-15T14:30:26;3.20;99.90
15156;DHT22;7678;50.058;8.306;2023-02-15T14:33:00;3.10;99.90
15156;DHT22;7678;50.058;8.306;2023-02-15T14:35:30;3.00;99.90
15156;DHT22;7678;50.058;8.306;2023-02-15T14:38:04;3.00;99.90
15156;DHT22;7678;50.058;8.306;2023-02-15T14:40:42;2.90;99.90
15156;DHT22;7678;50.058;8.306;2023-02-15T14:43:38;3.00;99.90
15156;DHT22;7678;50.058;8.306;2023-02-15T14:46:14;3.10;99.90
15156;DHT22;7678;50.058;8.306;2023-02-15T14:48:47;3.00;99.90
15156;DHT22;7678;50.058;8.306;2023-02-15T14:54:57;2.90;99.90
15156;DHT22;7678;50.058;8.306;2023-02-15T14:57:29;3.00;99.90
15156;DHT22;7678;50.058;8.306;2023-02-15T15:03:20;2.90;99.90
15156;DHT22;7678;50.058;8.306;2023-02-15T15:05:52;3.00;99.90
15156;DHT22;7678;50.058;8.306;2023-02-15T15:08:25;2.90;99.90
15156;DHT22;7678;50.058;8.306;2023-02-15T15:10:54;2.90;99.90
15156;DHT22;7678;50.058;8.306;2023-02-15T15:13:54;2.90;99.90
15156;DHT22;7678;50.058;8.306;2023-02-15T15:22:35;2.70;99.90
15156;DHT22;7678;50.058;8.306;2023-02-15T15:25:09;2.80;99.90
15156;DHT22;7678;50.058;8.306;2023-02-15T15:27:46;2.70;99.90
15156;DHT22;7678;50.058;8.306;2023-02-15T15:33:47;2.90;99.90
15156;DHT22;7678;50.058;8.306;2023-02-15T15:39:28;3.00;99.90
15156;DHT22;7678;50.058;8.306;2023-02-15T15:42:07;2.90;99.90
15156;DHT22;7678;50.058;8.306;2023-02-15T15:45:14;2.70;99.90
15156;DHT22;7678;50.058;8.306;2023-02-15T15:47:58;2.80;99.90
15156;DHT22;7678;50.058;8.306;2023-02-15T15:50:34;2.70;99.90
15156;DHT22;7678;50.058;8.306;2023-02-15T15:53:06;2.70;99.90
15156;DHT22;7678;50.058;8.306;2023-02-15T15:55:45;2.70;99.90
15156;DHT22;7678;50.058;8.306;2023-02-15T15:58:17;2.70;99.90
15156;DHT22;7678;50.058;8.306;2023-02-15T16:00:47;2.80;99.90
15156;DHT22;7678;50.058;8.306;2023-02-15T16:03:21;2.90;99.90
15156;DHT22;7678;50.058;8.306;2023-02-15T16:05:51;2.80;99.90
15156;DHT22;7678;50.058;8.306;2023-02-15T16:08:32;2.80;99.90
15156;DHT22;7678;50.058;8.306;2023-02-15T16:11:08;2.90;99.90
15156;DHT22;7678;50.058;8.306;2023-02-15T16:13:39;2.80;99.90
15156;DHT22;7678;50.058;8.306;2023-02-15T16:16:08;2.70;99.90
15156;DHT22;7678;50.058;8.306;2023-02-15T16:18:39;2.70;99.90
15156;DHT22;7678;50.058;8.306;2023-02-15T16:21:17;2.70;99.90
15156;DHT22;7678;50.058;8.306;2023-02-15T16:24:06;2.60;99.90
15156;DHT22;7678;50.058;8.306;2023-02-15T16:27:00;2.50;99.90
15156;DHT22;7678;50.058;8.306;2023-02-15T16:29:32;2.70;99.90
15156;DHT22;7678;50.058;8.306;2023-02-15T16:32:02;2.70;99.90
15156;DHT22;7678;50.058;8.306;2023-02-15T16:34:32;2.70;99.90
15156;DHT22;7678;50.058;8.306;2023-02-15T16:37:13;2.70;99.90
15156;DHT22;7678;50.058;8.306;2023-02-15T16:39:42;2.70;99.90
15156;DHT22;7678;50.058;8.306;2023-02-15T16:42:13;2.80;99.90
15156;DHT22;7678;50.058;8.306;2023-02-15T16:44:45;2.70;99.90
15156;DHT22;7678;50.058;8.306;2023-02-15T16:47:17;2.60;99.90
15156;DHT22;7678;50.058;8.306;2023-02-15T16:49:49;2.70;99.90
15156;DHT22;7678;50.058;8.306;2023-02-15T16:52:21;2.70;99.90
15156;DHT22;7678;50.058;8.306;2023-02-15T16:54:54;2.60;99.90
15156;DHT22;7678;50.058;8.306;2023-02-15T16:57:26;2.70;99.90
15156;DHT22;7678;50.058;8.306;2023-02-15T17:00:00;2.70;99.90
15156;DHT22;7678;50.058;8.306;2023-02-15T17:02:32;2.70;99.90
15156;DHT22;7678;50.058;8.306;2023-02-15T17:05:20;2.70;99.90
15156;DHT22;7678;50.058;8.306;2023-02-15T17:07:51;2.70;99.90
15156;DHT22;7678;50.058;8.306;2023-02-15T17:10:32;2.60;99.90
15156;DHT22;7678;50.058;8.306;2023-02-15T17:13:03;2.60;99.90
15156;DHT22;7678;50.058;8.306;2023-02-15T17:15:34;2.60;99.90